createdAt,value
2016-12-22T00:00:07.493Z,-0.05
2016-12-22T00:01:07.690Z,-0.05
2016-12-22T00:02:12.877Z,-0.27
2016-12-22T00:03:07.590Z,-0.20
2016-12-22T00:04:07.166Z,-0.03
2016-12-22T00:05:07.628Z,-0.08
2016-12-22T00:06:07.793Z,0.07
2016-12-22T00:07:07.751Z,0.28
2016-12-22T00:08:07.374Z,0.04
2016-12-22T00:09:07.849Z,-0.09
2016-12-22T00:10:07.718Z,0.11
2016-12-22T00:11:07.417Z,0.33
2016-12-22T00:12:07.212Z,0.16
2016-12-22T00:13:07.671Z,0.07
2016-12-22T00:14:07.939Z,-0.04
2016-12-22T00:15:07.687Z,0.20
2016-12-22T00:16:07.717Z,0.20
2016-12-22T00:17:07.357Z,0.09
2016-12-22T00:18:07.917Z,-0.12
2016-12-22T00:19:07.372Z,-0.04
2016-12-22T00:20:07.894Z,-0.02
2016-12-22T00:21:07.648Z,-0.32
2016-12-22T00:22:07.301Z,-0.01
2016-12-22T00:23:08.057Z,0.11
2016-12-22T00:24:07.938Z,0.23
2016-12-22T00:25:07.530Z,0.03
2016-12-22T00:26:08.045Z,-0.12
2016-12-22T00:27:08.095Z,0.03
2016-12-22T00:28:07.623Z,0.01
2016-12-22T00:29:07.139Z,-0.04
2016-12-22T00:30:07.998Z,0.05
2016-12-22T00:31:07.499Z,-0.14
2016-12-22T00:32:08.033Z,-0.01
2016-12-22T00:33:08.272Z,0.07
2016-12-22T00:34:07.899Z,0.12
2016-12-22T00:35:07.541Z,0.09
2016-12-22T00:36:08.105Z,0.21
2016-12-22T00:37:08.224Z,-0.01
2016-12-22T00:38:08.030Z,-0.01
2016-12-22T00:39:07.496Z,-0.02
2016-12-22T00:40:08.283Z,-0.07
2016-12-22T00:41:07.761Z,0.01
2016-12-22T00:42:07.330Z,0.20
2016-12-22T00:43:07.822Z,-0.02
2016-12-22T00:44:07.647Z,-0.09
2016-12-22T00:45:07.102Z,0.04
2016-12-22T00:46:07.598Z,0.03
2016-12-22T00:47:07.399Z,-0.27
2016-12-22T00:48:07.977Z,-0.40
2016-12-22T00:49:07.667Z,-0.17
2016-12-22T00:50:07.508Z,-0.16
2016-12-22T00:51:08.092Z,-0.13
2016-12-22T00:52:07.642Z,-0.14
2016-12-22T00:53:08.022Z,-0.22
2016-12-22T00:54:08.030Z,-0.03
2016-12-22T00:55:07.752Z,0.09
2016-12-22T00:56:07.286Z,0.08
2016-12-22T00:57:08.133Z,0.05
2016-12-22T00:58:07.986Z,0.12
2016-12-22T00:59:07.637Z,0.02
2016-12-22T01:00:07.141Z,-0.09
2016-12-22T01:01:07.710Z,0.05
2016-12-22T01:02:07.261Z,0.14
2016-12-22T01:03:07.802Z,0.14
2016-12-22T01:04:07.260Z,0.04
2016-12-22T01:05:07.681Z,-0.03
2016-12-22T01:06:07.113Z,-0.10
2016-12-22T01:07:07.894Z,0.04
2016-12-22T01:08:07.477Z,0.13
2016-12-22T01:09:07.408Z,0.23
2016-12-22T01:10:07.985Z,-0.01
2016-12-22T01:11:07.984Z,0.05
2016-12-22T01:12:07.575Z,-0.08
2016-12-22T01:13:08.334Z,-0.29
2016-12-22T01:14:08.161Z,-0.08
2016-12-22T01:15:07.657Z,-0.19
2016-12-22T01:16:07.200Z,-0.52
2016-12-22T01:17:07.852Z,-0.55
2016-12-22T01:18:07.611Z,-0.56
2016-12-22T01:19:07.117Z,-0.65
2016-12-22T01:20:07.900Z,-0.45
2016-12-22T01:21:07.398Z,-0.31
2016-12-22T01:22:08.182Z,-0.34
2016-12-22T01:23:07.705Z,-0.09
2016-12-22T01:24:07.562Z,-0.14
2016-12-22T01:25:08.331Z,-0.14
2016-12-22T01:26:07.929Z,-0.12
2016-12-22T01:27:07.440Z,0.09
2016-12-22T01:28:07.930Z,-0.10
2016-12-22T01:29:07.783Z,-0.15
2016-12-22T01:30:07.644Z,-0.06
2016-12-22T01:31:07.149Z,-0.11
2016-12-22T01:32:08.013Z,-0.16
2016-12-22T01:33:08.016Z,-0.01
2016-12-22T01:34:07.911Z,-0.21
2016-12-22T01:35:07.395Z,-0.28
2016-12-22T01:36:07.998Z,0.01
2016-12-22T01:37:07.537Z,-0.15
2016-12-22T01:38:08.082Z,-0.22
2016-12-22T01:39:07.951Z,-0.53
2016-12-22T01:40:07.716Z,-0.43
2016-12-22T01:41:07.288Z,-0.19
2016-12-22T01:42:07.750Z,-0.08
2016-12-22T01:43:07.233Z,-0.24
2016-12-22T01:44:07.788Z,-0.35
2016-12-22T01:45:07.338Z,-0.18
2016-12-22T01:46:07.968Z,-0.32
2016-12-22T01:47:07.769Z,-0.26
2016-12-22T01:48:07.507Z,-0.19
2016-12-22T01:49:08.027Z,-0.21
2016-12-22T01:50:07.503Z,-0.43
2016-12-22T01:51:07.987Z,-0.20
2016-12-22T01:52:07.707Z,-0.16
2016-12-22T01:53:07.402Z,-0.25
2016-12-22T01:54:07.990Z,-0.08
2016-12-22T01:55:07.700Z,-0.30
2016-12-22T01:56:07.542Z,-0.23
2016-12-22T01:57:08.050Z,-0.29
2016-12-22T01:58:07.540Z,-0.27
2016-12-22T01:59:08.198Z,-0.38
2016-12-22T02:00:07.671Z,-0.24
2016-12-22T02:01:07.202Z,-0.21
2016-12-22T02:02:07.668Z,-0.35
2016-12-22T02:03:07.174Z,-0.56
2016-12-22T02:04:07.699Z,-0.30
2016-12-22T02:05:07.436Z,-0.09
2016-12-22T02:06:07.898Z,-0.29
2016-12-22T02:07:07.716Z,-0.18
2016-12-22T02:08:07.241Z,-0.32
2016-12-22T02:09:07.770Z,-0.26
2016-12-22T02:10:07.287Z,-0.52
2016-12-22T02:11:07.830Z,-0.58
2016-12-22T02:12:07.579Z,-0.51
2016-12-22T02:13:07.516Z,-0.41
2016-12-22T02:14:08.058Z,-0.20
2016-12-22T02:15:07.577Z,-0.20
2016-12-22T02:16:07.212Z,-0.27
2016-12-22T02:17:08.280Z,-0.02
2016-12-22T02:18:08.097Z,-0.20
2016-12-22T02:19:07.581Z,0.05
2016-12-22T02:20:07.101Z,-0.10
2016-12-22T02:21:07.517Z,-0.06
2016-12-22T02:22:08.001Z,-0.20
2016-12-22T02:23:07.559Z,-0.18
2016-12-22T02:24:08.059Z,-0.16
2016-12-22T02:25:07.548Z,0.13
2016-12-22T02:26:08.029Z,0.11
2016-12-22T02:27:07.768Z,-0.12
2016-12-22T02:28:07.243Z,-0.21
2016-12-22T02:29:07.783Z,-0.01
2016-12-22T02:30:07.708Z,-0.17
2016-12-22T02:31:07.409Z,-0.07
2016-12-22T02:32:07.866Z,0.06
2016-12-22T02:33:07.262Z,-0.26
2016-12-22T02:34:07.798Z,-0.34
2016-12-22T02:35:07.318Z,-0.01
2016-12-22T02:36:07.895Z,-0.05
2016-12-22T02:37:07.389Z,-0.20
2016-12-22T02:38:08.128Z,-0.10
2016-12-22T02:39:07.960Z,0.05
2016-12-22T02:40:07.798Z,-0.24
2016-12-22T02:41:07.362Z,-0.16
2016-12-22T02:42:07.850Z,-0.14
2016-12-22T02:43:07.352Z,-0.31
2016-12-22T02:44:07.863Z,-0.17
2016-12-22T02:45:07.390Z,-0.49
2016-12-22T02:46:08.211Z,-0.52
2016-12-22T02:47:07.880Z,-0.43
2016-12-22T02:48:07.389Z,-0.30
2016-12-22T02:49:07.954Z,-0.32
2016-12-22T02:50:07.523Z,-0.23
2016-12-22T02:51:08.015Z,-0.27
2016-12-22T02:52:07.481Z,-0.26
2016-12-22T02:53:07.943Z,-0.29
2016-12-22T02:54:07.920Z,-0.22
2016-12-22T02:55:07.656Z,-0.18
2016-12-22T02:56:07.208Z,-0.26
2016-12-22T02:57:07.720Z,-0.41
2016-12-22T02:58:07.319Z,-0.36
2016-12-22T02:59:07.862Z,-0.30
2016-12-22T03:00:07.439Z,-0.28
2016-12-22T03:01:07.945Z,-0.50
2016-12-22T03:02:07.622Z,-0.55
2016-12-22T03:03:07.627Z,-0.35
2016-12-22T03:04:07.419Z,-0.40
2016-12-22T03:05:07.955Z,-0.53
2016-12-22T03:06:07.407Z,-0.61
2016-12-22T03:07:07.907Z,-0.61
2016-12-22T03:08:07.403Z,-0.72
2016-12-22T03:09:08.023Z,-0.57
2016-12-22T03:10:07.549Z,-0.39
2016-12-22T03:11:08.054Z,-0.36
2016-12-22T03:12:07.542Z,-0.49
2016-12-22T03:13:08.264Z,-0.33
2016-12-22T03:14:07.904Z,-0.29
2016-12-22T03:15:07.631Z,-0.09
2016-12-22T03:16:07.648Z,-0.12
2016-12-22T03:17:07.292Z,0.04
2016-12-22T03:18:07.810Z,0.07
2016-12-22T03:19:08.004Z,0.01
2016-12-22T03:20:08.059Z,-0.21
2016-12-22T03:21:07.598Z,-0.02
2016-12-22T03:22:07.215Z,-0.13
2016-12-22T03:23:07.722Z,-0.09
2016-12-22T03:24:07.278Z,-0.10
2016-12-22T03:25:08.172Z,-0.24
2016-12-22T03:26:07.925Z,-0.42
2016-12-22T03:27:07.449Z,-0.52
2016-12-22T03:28:07.956Z,-0.41
2016-12-22T03:29:07.554Z,-0.39
2016-12-22T03:30:08.120Z,-0.25
2016-12-22T03:31:07.573Z,-0.16
2016-12-22T03:32:08.103Z,-0.39
2016-12-22T03:33:07.638Z,-0.44
2016-12-22T03:34:07.616Z,-0.32
2016-12-22T03:35:07.081Z,-0.36
2016-12-22T03:36:07.625Z,-0.33
2016-12-22T03:37:07.431Z,-0.52
2016-12-22T03:38:08.188Z,-0.31
2016-12-22T03:39:07.833Z,-0.41
2016-12-22T03:40:07.537Z,-0.42
2016-12-22T03:41:07.853Z,-0.69
2016-12-22T03:42:07.327Z,-0.45
2016-12-22T03:43:07.765Z,-0.38
2016-12-22T03:44:07.226Z,-0.14
2016-12-22T03:45:07.678Z,0.04
2016-12-22T03:46:07.544Z,-0.03
2016-12-22T03:47:08.249Z,-0.01
2016-12-22T03:48:07.795Z,-0.05
2016-12-22T03:49:07.266Z,-0.09
2016-12-22T03:50:07.722Z,-0.17
2016-12-22T03:51:07.303Z,-0.33
2016-12-22T03:52:07.139Z,-0.46
2016-12-22T03:53:07.257Z,-0.51
2016-12-22T03:54:07.731Z,-0.36
2016-12-22T03:55:07.223Z,-0.52
2016-12-22T03:56:07.779Z,-0.33
2016-12-22T03:57:07.218Z,-0.53
2016-12-22T03:58:08.001Z,-0.46
2016-12-22T03:59:07.741Z,-0.49
2016-12-22T04:00:07.327Z,-0.46
2016-12-22T04:01:08.172Z,-0.39
2016-12-22T04:02:07.889Z,-0.23
2016-12-22T04:03:07.568Z,-0.19
2016-12-22T04:04:07.978Z,-0.37
2016-12-22T04:05:07.929Z,-0.54
2016-12-22T04:06:07.587Z,-0.54
2016-12-22T04:07:07.123Z,-0.58
2016-12-22T04:08:07.662Z,-0.38
2016-12-22T04:09:07.241Z,-0.28
2016-12-22T04:10:07.986Z,-0.44
2016-12-22T04:11:07.403Z,-0.33
2016-12-22T04:12:08.104Z,-0.24
2016-12-22T04:13:07.659Z,-0.13
2016-12-22T04:14:07.235Z,-0.24
2016-12-22T04:15:08.074Z,-0.49
2016-12-22T04:16:08.114Z,-0.48
2016-12-22T04:17:07.868Z,-0.54
2016-12-22T04:18:07.364Z,-0.43
2016-12-22T04:19:07.881Z,-0.25
2016-12-22T04:20:07.718Z,-0.41
2016-12-22T04:21:07.183Z,-0.38
2016-12-22T04:22:07.737Z,-0.35
2016-12-22T04:23:07.480Z,-0.66
2016-12-22T04:24:08.041Z,-0.55
2016-12-22T04:25:07.769Z,-0.54
2016-12-22T04:26:07.206Z,-0.35
2016-12-22T04:27:07.787Z,-0.32
2016-12-22T04:28:07.424Z,-0.42
2016-12-22T04:29:07.936Z,-0.30
2016-12-22T04:30:07.473Z,-0.31
2016-12-22T04:31:07.950Z,-0.39
2016-12-22T04:32:07.827Z,-0.55
2016-12-22T04:33:07.754Z,-0.73
2016-12-22T04:34:07.385Z,-0.63
2016-12-22T04:35:07.966Z,-0.74
2016-12-22T04:36:07.716Z,-0.60
2016-12-22T04:37:07.211Z,-0.49
2016-12-22T04:38:07.753Z,-0.49
2016-12-22T04:39:07.179Z,-0.55
2016-12-22T04:40:07.926Z,-0.27
2016-12-22T04:41:07.409Z,-0.29
2016-12-22T04:42:07.842Z,-0.20
2016-12-22T04:43:07.643Z,-0.16
2016-12-22T04:44:07.135Z,-0.36
2016-12-22T04:45:07.818Z,-0.43
2016-12-22T04:46:07.253Z,-0.36
2016-12-22T04:47:07.898Z,-0.50
2016-12-22T04:48:07.196Z,-0.40
2016-12-22T04:49:07.999Z,-0.48
2016-12-22T04:50:08.106Z,-0.52
2016-12-22T04:51:07.824Z,-0.39
2016-12-22T04:52:07.298Z,-0.47
2016-12-22T04:53:07.873Z,-0.62
2016-12-22T04:54:07.942Z,-0.70
2016-12-22T04:55:07.759Z,-0.81
2016-12-22T04:56:07.442Z,-0.87
2016-12-22T04:57:08.045Z,-0.66
2016-12-22T04:58:07.606Z,-0.75
2016-12-22T04:59:07.127Z,-0.91
2016-12-22T05:00:07.657Z,-0.91
2016-12-22T05:01:07.140Z,-0.72
2016-12-22T05:02:07.921Z,-0.64
2016-12-22T05:03:07.424Z,-0.74
2016-12-22T05:04:07.381Z,-0.74
2016-12-22T05:05:07.883Z,-0.83
2016-12-22T05:06:07.620Z,-0.96
2016-12-22T05:07:07.050Z,-0.86
2016-12-22T05:08:07.936Z,-0.79
2016-12-22T05:09:08.305Z,-0.87
2016-12-22T05:10:07.923Z,-0.70
2016-12-22T05:11:07.538Z,-0.73
2016-12-22T05:12:08.060Z,-0.52
2016-12-22T05:13:07.612Z,-0.70
2016-12-22T05:14:07.351Z,-0.61
2016-12-22T05:15:07.845Z,-0.59
2016-12-22T05:16:07.667Z,-0.65
2016-12-22T05:17:07.506Z,-0.58
2016-12-22T05:18:08.274Z,-0.54
2016-12-22T05:19:07.797Z,-0.44
2016-12-22T05:20:07.491Z,-0.65
2016-12-22T05:21:08.007Z,-0.99
2016-12-22T05:22:07.494Z,-0.99
2016-12-22T05:23:08.170Z,-0.99
2016-12-22T05:24:07.721Z,-0.72
2016-12-22T05:25:09.894Z,-0.90
2016-12-22T05:26:07.499Z,-0.86
2016-12-22T05:27:08.025Z,-0.87
2016-12-22T05:28:07.539Z,-0.74
2016-12-22T05:29:08.333Z,-0.99
2016-12-22T05:30:07.804Z,-0.69
2016-12-22T05:31:07.286Z,-0.96
2016-12-22T05:32:07.803Z,-0.82
2016-12-22T05:33:08.333Z,-0.87
2016-12-22T05:34:07.896Z,-0.83
2016-12-22T05:35:07.601Z,-0.75
2016-12-22T05:36:07.136Z,-0.78
2016-12-22T05:37:08.158Z,-0.88
2016-12-22T05:38:07.201Z,-0.87
2016-12-22T05:39:07.748Z,-0.95
2016-12-22T05:40:07.207Z,-1.06
2016-12-22T05:41:07.938Z,-0.97
2016-12-22T05:42:07.375Z,-0.95
2016-12-22T05:43:07.647Z,-0.92
2016-12-22T05:44:07.950Z,-0.85
2016-12-22T05:45:07.555Z,-0.93
2016-12-22T05:46:07.973Z,-0.84
2016-12-22T05:47:07.701Z,-0.79
2016-12-22T05:48:07.188Z,-0.59
2016-12-22T05:49:07.800Z,-0.78
2016-12-22T05:50:07.417Z,-0.81
2016-12-22T05:51:08.306Z,-0.93
2016-12-22T05:52:07.886Z,-0.87
2016-12-22T05:53:07.418Z,-0.98
2016-12-22T05:54:07.924Z,-1.14
2016-12-22T05:55:07.543Z,-1.10
2016-12-22T05:56:08.294Z,-0.91
2016-12-22T05:57:08.063Z,-1.12
2016-12-22T05:58:07.531Z,-0.98
2016-12-22T05:59:08.109Z,-1.17
2016-12-22T06:00:07.576Z,-1.13
2016-12-22T06:01:08.082Z,-1.00
2016-12-22T06:02:07.878Z,-1.09
2016-12-22T06:03:07.520Z,-1.39
2016-12-22T06:04:08.029Z,-1.41
2016-12-22T06:05:07.612Z,-1.56
2016-12-22T06:06:07.081Z,-1.78
2016-12-22T06:07:07.829Z,-1.62
2016-12-22T06:08:07.292Z,-1.64
2016-12-22T06:09:07.807Z,-1.49
2016-12-22T06:10:07.516Z,-1.43
2016-12-22T06:11:08.138Z,-1.21
2016-12-22T06:12:07.631Z,-1.05
2016-12-22T06:13:07.320Z,-1.06
2016-12-22T06:14:08.110Z,-1.48
2016-12-22T06:15:07.811Z,-1.42
2016-12-22T06:16:07.249Z,-1.32
2016-12-22T06:17:07.987Z,-1.24
2016-12-22T06:18:07.650Z,-1.39
2016-12-22T06:19:07.210Z,-1.44
2016-12-22T06:20:07.719Z,-1.70
2016-12-22T06:21:07.200Z,-1.60
2016-12-22T06:22:07.723Z,-1.76
2016-12-22T06:23:07.324Z,-1.67
2016-12-22T06:24:08.042Z,-1.36
2016-12-22T06:25:07.785Z,-1.37
2016-12-22T06:26:07.496Z,-1.45
2016-12-22T06:27:08.140Z,-1.52
2016-12-22T06:28:07.739Z,-1.53
2016-12-22T06:29:07.879Z,-1.50
2016-12-22T06:30:07.598Z,-1.40
2016-12-22T06:31:07.040Z,-1.72
2016-12-22T06:32:07.574Z,-1.71
2016-12-22T06:33:08.191Z,-1.58
2016-12-22T06:34:07.806Z,-1.55
2016-12-22T06:35:07.430Z,-1.33
2016-12-22T06:36:08.014Z,-1.60
2016-12-22T06:37:07.756Z,-1.66
2016-12-22T06:38:07.340Z,-1.67
2016-12-22T06:39:07.100Z,-1.52
2016-12-22T06:40:07.342Z,-1.43
2016-12-22T06:41:07.748Z,-1.31
2016-12-22T06:42:07.192Z,-1.24
2016-12-22T06:43:07.868Z,-1.47
2016-12-22T06:44:07.344Z,-1.86
2016-12-22T06:45:07.901Z,-1.72
2016-12-22T06:46:07.361Z,-1.48
2016-12-22T06:47:08.032Z,-1.46
2016-12-22T06:48:07.593Z,-1.58
2016-12-22T06:49:07.623Z,-1.41
2016-12-22T06:50:07.592Z,-1.60
2016-12-22T06:51:07.168Z,-1.58
2016-12-22T06:52:07.281Z,-1.57
2016-12-22T06:53:08.025Z,-1.41
2016-12-22T06:54:07.416Z,-1.36
2016-12-22T06:55:07.924Z,-1.37
2016-12-22T06:56:07.428Z,-1.44
2016-12-22T06:57:08.105Z,-1.53
2016-12-22T06:58:07.834Z,-1.67
2016-12-22T06:59:07.699Z,-1.63
2016-12-22T07:00:07.147Z,-1.58
2016-12-22T07:01:07.317Z,-1.61
2016-12-22T07:02:08.195Z,-1.58
2016-12-22T07:03:07.826Z,-1.47
2016-12-22T07:04:07.362Z,-1.58
2016-12-22T07:05:07.943Z,-1.42
2016-12-22T07:06:07.516Z,-1.43
2016-12-22T07:07:07.395Z,-1.33
2016-12-22T07:08:07.939Z,-1.48
2016-12-22T07:09:07.405Z,-1.63
2016-12-22T07:10:08.195Z,-1.54
2016-12-22T07:11:08.105Z,-1.66
2016-12-22T07:12:08.004Z,-1.58
2016-12-22T07:13:07.439Z,-1.61
2016-12-22T07:14:07.942Z,-1.73
2016-12-22T07:15:07.451Z,-1.71
2016-12-22T07:16:08.315Z,-1.71
2016-12-22T07:17:07.963Z,-1.80
2016-12-22T07:18:07.565Z,-1.82
2016-12-22T07:19:08.034Z,-1.87
2016-12-22T07:20:07.879Z,-1.97
2016-12-22T07:21:07.723Z,-1.97
2016-12-22T07:22:07.724Z,-1.89
2016-12-22T07:23:07.869Z,-1.90
2016-12-22T07:24:07.337Z,-1.71
2016-12-22T07:25:07.786Z,-1.59
2016-12-22T07:26:07.624Z,-1.80
2016-12-22T07:27:07.085Z,-1.75
2016-12-22T07:28:07.248Z,-1.75
2016-12-22T07:29:07.757Z,-1.66
2016-12-22T07:30:07.393Z,-1.62
2016-12-22T07:31:07.664Z,-1.49
2016-12-22T07:32:07.481Z,-1.10
2016-12-22T07:33:08.004Z,-1.16
2016-12-22T07:34:07.714Z,-1.35
2016-12-22T07:35:07.343Z,-1.23
2016-12-22T07:36:07.282Z,-1.25
2016-12-22T07:37:08.062Z,-1.23
2016-12-22T07:38:07.530Z,-1.35
2016-12-22T07:39:08.037Z,-1.18
2016-12-22T07:40:07.529Z,-1.03
2016-12-22T07:41:08.024Z,-1.13
2016-12-22T07:42:07.570Z,-1.08
2016-12-22T07:43:08.070Z,-0.92
2016-12-22T07:44:07.542Z,-1.09
2016-12-22T07:45:08.069Z,-0.97
2016-12-22T07:46:07.740Z,-1.33
2016-12-22T07:47:07.210Z,-1.04
2016-12-22T07:48:07.689Z,-1.29
2016-12-22T07:49:07.159Z,-1.40
2016-12-22T07:50:07.978Z,-1.20
2016-12-22T07:51:07.530Z,-1.27
2016-12-22T07:52:08.049Z,-1.07
2016-12-22T07:53:07.840Z,-0.97
2016-12-22T07:54:07.429Z,-1.16
2016-12-22T07:55:07.916Z,-1.24
2016-12-22T07:56:07.456Z,-1.05
2016-12-22T07:57:08.181Z,-0.92
2016-12-22T07:58:07.689Z,-0.82
2016-12-22T07:59:07.338Z,-0.80
2016-12-22T08:00:07.911Z,-0.91
2016-12-22T08:01:07.860Z,-0.84
2016-12-22T08:02:07.425Z,-0.88
2016-12-22T08:03:08.175Z,-0.75
2016-12-22T08:04:08.077Z,-0.79
2016-12-22T08:05:07.532Z,-0.78
2016-12-22T08:06:07.078Z,-0.80
2016-12-22T08:07:07.772Z,-0.98
2016-12-22T08:08:07.205Z,-1.19
2016-12-22T08:09:07.888Z,-1.06
2016-12-22T08:10:07.458Z,-1.08
2016-12-22T08:11:07.528Z,-1.25
2016-12-22T08:12:08.035Z,-0.98
2016-12-22T08:13:07.536Z,-1.04
2016-12-22T08:14:08.114Z,-0.99
2016-12-22T08:15:07.539Z,-0.78
2016-12-22T08:16:08.060Z,-0.75
2016-12-22T08:17:07.673Z,-0.78
2016-12-22T08:18:07.150Z,-0.58
2016-12-22T08:19:07.899Z,-0.78
2016-12-22T08:20:07.373Z,-0.82
2016-12-22T08:21:07.899Z,-0.90
2016-12-22T08:22:07.436Z,-0.88
2016-12-22T08:23:08.026Z,-0.78
2016-12-22T08:24:07.825Z,-0.68
2016-12-22T08:25:07.309Z,-0.56
2016-12-22T08:26:07.826Z,-0.63
2016-12-22T08:27:07.417Z,-0.84
2016-12-22T08:28:07.961Z,-0.75
2016-12-22T08:29:07.482Z,-0.62
2016-12-22T08:30:08.013Z,-0.87
2016-12-22T08:31:07.562Z,-0.78
2016-12-22T08:32:07.136Z,-0.95
2016-12-22T08:33:07.776Z,-0.74
2016-12-22T08:34:07.992Z,-0.59
2016-12-22T08:35:07.538Z,-0.65
2016-12-22T08:36:07.074Z,-0.58
2016-12-22T08:37:07.884Z,-0.40
2016-12-22T08:38:07.401Z,-0.49
2016-12-22T08:39:07.881Z,-0.64
2016-12-22T08:40:07.539Z,-0.55
2016-12-22T08:41:08.067Z,-0.58
2016-12-22T08:42:07.753Z,-0.61
2016-12-22T08:43:07.291Z,-0.61
2016-12-22T08:44:07.344Z,-0.46
2016-12-22T08:45:07.882Z,-0.59
2016-12-22T08:46:07.513Z,-0.49
2016-12-22T08:47:07.468Z,-0.62
2016-12-22T08:48:07.484Z,-0.49
2016-12-22T08:49:08.011Z,-0.38
2016-12-22T08:50:07.631Z,-0.36
2016-12-22T08:51:07.405Z,-0.45
2016-12-22T08:52:07.902Z,-0.45
2016-12-22T08:53:07.895Z,-0.34
2016-12-22T08:54:07.497Z,-0.49
2016-12-22T08:55:08.251Z,-0.45
2016-12-22T08:56:08.167Z,-0.50
2016-12-22T08:57:07.838Z,-0.35
2016-12-22T08:58:07.694Z,-0.30
2016-12-22T08:59:07.488Z,-0.14
2016-12-22T09:00:08.423Z,-0.15
2016-12-22T09:01:07.878Z,-0.16
2016-12-22T09:02:07.362Z,-0.32
2016-12-22T09:03:07.952Z,-0.35
2016-12-22T09:04:07.463Z,-0.27
2016-12-22T09:05:07.940Z,-0.00
2016-12-22T09:06:07.873Z,-0.06
2016-12-22T09:07:07.733Z,-0.13
2016-12-22T09:08:07.208Z,0.13
2016-12-22T09:09:07.728Z,0.04
2016-12-22T09:10:07.721Z,-0.08
2016-12-22T09:11:07.204Z,-0.16
2016-12-22T09:12:07.736Z,-0.05
2016-12-22T09:13:07.233Z,0.21
2016-12-22T09:14:07.847Z,-0.01
2016-12-22T09:15:07.677Z,-0.07
2016-12-22T09:16:08.383Z,0.10
2016-12-22T09:17:08.092Z,0.13
2016-12-22T09:18:07.563Z,0.20
2016-12-22T09:19:07.897Z,0.20
2016-12-22T09:20:08.267Z,0.14
2016-12-22T09:21:07.672Z,-0.14
2016-12-22T09:22:08.087Z,-0.11
2016-12-22T09:23:07.832Z,-0.04
2016-12-22T09:24:08.018Z,-0.18
2016-12-22T09:25:13.101Z,-0.09
2016-12-22T09:26:07.846Z,-0.13
2016-12-22T09:27:07.549Z,-0.16
2016-12-22T09:28:07.536Z,-0.07
2016-12-22T09:29:07.719Z,0.01
2016-12-22T09:30:07.146Z,0.03
2016-12-22T09:31:08.024Z,0.18
2016-12-22T09:32:07.868Z,0.15
2016-12-22T09:33:07.277Z,0.28
2016-12-22T09:34:07.985Z,0.54
2016-12-22T09:35:07.725Z,0.60
2016-12-22T09:36:07.485Z,0.77
2016-12-22T09:37:08.414Z,0.61
2016-12-22T09:38:08.101Z,0.53
2016-12-22T09:39:07.761Z,0.67
2016-12-22T09:40:07.605Z,0.77
2016-12-22T09:41:07.760Z,0.52
2016-12-22T09:42:07.213Z,0.62
2016-12-22T09:43:08.059Z,0.58
2016-12-22T09:44:07.539Z,0.38
2016-12-22T09:45:08.054Z,0.57
2016-12-22T09:46:07.964Z,0.74
2016-12-22T09:47:07.863Z,0.72
2016-12-22T09:48:07.477Z,0.81
2016-12-22T09:49:08.249Z,0.81
2016-12-22T09:50:07.751Z,0.88
2016-12-22T09:51:07.349Z,0.97
2016-12-22T09:52:07.104Z,1.04
2016-12-22T09:53:07.948Z,0.95
2016-12-22T09:54:07.441Z,0.90
2016-12-22T09:55:07.936Z,1.08
2016-12-22T09:56:07.473Z,0.88
2016-12-22T09:57:07.935Z,0.91
2016-12-22T09:58:07.377Z,0.89
2016-12-22T09:59:07.914Z,0.82
2016-12-22T10:00:07.679Z,0.88
2016-12-22T10:01:07.222Z,1.02
2016-12-22T10:02:08.000Z,1.12
2016-12-22T10:03:07.610Z,1.09
2016-12-22T10:04:07.567Z,1.01
2016-12-22T10:05:07.337Z,0.97
2016-12-22T10:06:07.856Z,1.07
2016-12-22T10:07:07.379Z,1.11
2016-12-22T10:08:07.778Z,1.10
2016-12-22T10:09:07.217Z,1.29
2016-12-22T10:10:07.749Z,1.32
2016-12-22T10:11:07.277Z,1.35
2016-12-22T10:12:07.751Z,1.47
2016-12-22T10:13:07.341Z,1.56
2016-12-22T10:14:07.967Z,1.43
2016-12-22T10:15:07.441Z,1.47
2016-12-22T10:16:07.938Z,1.55
2016-12-22T10:17:07.576Z,1.58
2016-12-22T10:18:07.162Z,1.70
2016-12-22T10:19:07.544Z,1.79
2016-12-22T10:20:08.459Z,1.59
2016-12-22T10:21:08.055Z,1.70
2016-12-22T10:22:07.770Z,1.67
2016-12-22T10:23:07.225Z,1.70
2016-12-22T10:24:07.921Z,1.75
2016-12-22T10:25:07.371Z,1.81
2016-12-22T10:26:07.949Z,1.82
2016-12-22T10:27:07.404Z,1.94
2016-12-22T10:28:08.082Z,1.91
2016-12-22T10:29:07.572Z,1.80
2016-12-22T10:30:08.094Z,1.84
2016-12-22T10:31:07.903Z,1.85
2016-12-22T10:32:07.511Z,1.95
2016-12-22T10:33:07.990Z,1.73
2016-12-22T10:34:07.484Z,1.69
2016-12-22T10:35:08.039Z,1.83
2016-12-22T10:36:08.026Z,1.94
2016-12-22T10:37:07.644Z,1.99
2016-12-22T10:38:07.221Z,2.05
2016-12-22T10:39:07.744Z,1.93
2016-12-22T10:40:07.542Z,1.96
2016-12-22T10:41:08.290Z,2.04
2016-12-22T10:42:08.050Z,2.08
2016-12-22T10:43:07.503Z,1.90
2016-12-22T10:44:07.563Z,1.89
2016-12-22T10:45:07.517Z,1.86
2016-12-22T10:46:11.507Z,1.99
2016-12-22T10:47:07.374Z,2.11
2016-12-22T10:48:08.096Z,2.12
2016-12-22T10:49:07.558Z,2.07
2016-12-22T10:50:08.475Z,2.11
2016-12-22T10:51:08.103Z,2.15
2016-12-22T10:52:07.532Z,2.23
2016-12-22T10:53:08.002Z,2.10
2016-12-22T10:54:07.717Z,2.14
2016-12-22T10:55:07.222Z,2.18
2016-12-22T10:56:07.852Z,2.26
2016-12-22T10:57:07.696Z,2.21
2016-12-22T10:58:07.371Z,2.32
2016-12-22T10:59:07.901Z,2.20
2016-12-22T11:00:07.883Z,2.19
2016-12-22T11:01:07.812Z,2.21
2016-12-22T11:02:07.414Z,2.32
2016-12-22T11:03:07.909Z,2.25
2016-12-22T11:04:07.395Z,2.33
2016-12-22T11:05:13.380Z,2.36
2016-12-22T11:06:07.993Z,2.27
2016-12-22T11:07:07.717Z,2.38
2016-12-22T11:08:07.215Z,2.39
2016-12-22T11:09:08.027Z,2.52
2016-12-22T11:10:07.516Z,2.54
2016-12-22T11:11:08.068Z,2.43
2016-12-22T11:12:07.882Z,2.42
2016-12-22T11:13:07.124Z,2.50
2016-12-22T11:14:07.804Z,2.42
2016-12-22T11:15:07.687Z,2.57
2016-12-22T11:16:07.749Z,2.63
2016-12-22T11:17:07.354Z,2.62
2016-12-22T11:18:07.828Z,2.56
2016-12-22T11:19:07.502Z,2.69
2016-12-22T11:20:08.104Z,2.73
2016-12-22T11:21:07.884Z,2.68
2016-12-22T11:22:07.792Z,2.72
2016-12-22T11:23:07.448Z,2.79
2016-12-22T11:24:08.177Z,2.77
2016-12-22T11:25:07.994Z,2.66
2016-12-22T11:26:07.629Z,2.73
2016-12-22T11:27:07.279Z,2.74
2016-12-22T11:28:07.784Z,2.61
2016-12-22T11:29:07.308Z,2.72
2016-12-22T11:30:07.816Z,2.72
2016-12-22T11:31:07.655Z,2.82
2016-12-22T11:32:07.101Z,2.84
2016-12-22T11:33:07.889Z,2.85
2016-12-22T11:34:07.393Z,2.87
2016-12-22T11:35:07.917Z,2.89
2016-12-22T11:36:07.734Z,2.93
2016-12-22T11:37:07.312Z,2.84
2016-12-22T11:38:07.732Z,2.96
2016-12-22T11:39:07.335Z,3.07
2016-12-22T11:40:07.862Z,3.07
2016-12-22T11:41:07.362Z,3.02
2016-12-22T11:42:08.197Z,3.07
2016-12-22T11:43:07.679Z,3.01
2016-12-22T11:44:07.155Z,2.94
2016-12-22T11:45:07.645Z,3.01
2016-12-22T11:46:07.543Z,3.02
2016-12-22T11:47:07.581Z,3.08
2016-12-22T11:48:07.803Z,3.03
2016-12-22T11:49:07.966Z,3.03
2016-12-22T11:50:07.901Z,3.12
2016-12-22T11:51:07.553Z,3.17
2016-12-22T11:52:07.543Z,3.07
2016-12-22T11:53:08.303Z,3.09
2016-12-22T11:54:08.157Z,3.03
2016-12-22T11:55:07.837Z,3.11
2016-12-22T11:56:07.392Z,3.14
2016-12-22T11:57:07.159Z,3.22
2016-12-22T11:58:07.701Z,3.12
2016-12-22T11:59:07.294Z,3.10
2016-12-22T12:00:07.520Z,3.07
2016-12-22T12:01:07.756Z,3.08
2016-12-22T12:02:07.784Z,3.09
2016-12-22T12:03:07.260Z,3.23
2016-12-22T12:04:08.066Z,3.24
2016-12-22T12:05:08.044Z,3.31
2016-12-22T12:06:07.635Z,3.19
2016-12-22T12:07:07.343Z,3.29
2016-12-22T12:08:07.250Z,3.21
2016-12-22T12:09:07.474Z,3.21
2016-12-22T12:10:07.938Z,3.13
2016-12-22T12:11:07.521Z,3.12
2016-12-22T12:12:07.857Z,3.11
2016-12-22T12:13:07.435Z,3.30
2016-12-22T12:14:08.023Z,3.42
2016-12-22T12:15:07.625Z,3.38
2016-12-22T12:16:07.421Z,3.26
2016-12-22T12:17:08.384Z,3.15
2016-12-22T12:18:07.899Z,3.14
2016-12-22T12:19:07.687Z,3.19
2016-12-22T12:20:07.176Z,3.20
2016-12-22T12:21:07.826Z,3.30
2016-12-22T12:22:07.305Z,3.30
2016-12-22T12:23:07.845Z,3.43
2016-12-22T12:24:07.376Z,3.32
2016-12-22T12:25:07.978Z,3.41
2016-12-22T12:26:07.471Z,3.40
2016-12-22T12:27:08.102Z,3.47
2016-12-22T12:28:07.847Z,3.48
2016-12-22T12:29:07.431Z,3.53
2016-12-22T12:30:08.168Z,3.59
2016-12-22T12:31:07.713Z,3.55
2016-12-22T12:32:07.168Z,3.56
2016-12-22T12:33:08.011Z,3.66
2016-12-22T12:34:07.550Z,3.64
2016-12-22T12:35:08.123Z,3.64
2016-12-22T12:36:07.672Z,3.67
2016-12-22T12:37:07.131Z,3.71
2016-12-22T12:38:07.650Z,3.65
2016-12-22T12:39:07.418Z,3.70
2016-12-22T12:40:08.191Z,3.64
2016-12-22T12:41:07.829Z,3.71
2016-12-22T12:42:07.704Z,3.70
2016-12-22T12:43:07.862Z,3.81
2016-12-22T12:44:07.768Z,3.74
2016-12-22T12:45:07.509Z,3.74
2016-12-22T12:46:08.026Z,3.76
2016-12-22T12:47:08.102Z,3.69
2016-12-22T12:48:07.580Z,3.78
2016-12-22T12:49:08.214Z,3.82
2016-12-22T12:50:08.006Z,3.78
2016-12-22T12:51:07.814Z,3.78
2016-12-22T12:52:07.415Z,3.86
2016-12-22T12:53:07.220Z,3.81
2016-12-22T12:54:07.727Z,3.92
2016-12-22T12:55:07.207Z,3.94
2016-12-22T12:56:07.737Z,3.82
2016-12-22T12:57:07.438Z,3.83
2016-12-22T12:58:08.189Z,3.81
2016-12-22T12:59:07.662Z,3.97
2016-12-22T13:00:07.273Z,3.95
2016-12-22T13:01:07.839Z,3.95